This is the latest recevied weather packets stored in our database for station/object DB0MW-13. If no packets are shown the sender has not sent any weather packets the latest 10 day(s).
| Time | Temp. | Humidity | Pressure | Rain* | Wind** | Luminosity | Snow |
|---|---|---|---|---|---|---|---|
| 1777340101 | 11.67° C | 57% | 1019.9 hPa | 0 mm | - | - | - |
| 1777339501 | 11.67° C | 58% | 1019.7 hPa | 0 mm | - | - | - |
| 1777339201 | 11.67° C | 58% | 1020 hPa | 0 mm | - | - | - |
| 1777338901 | 11.67° C | 58% | 1019.8 hPa | 0 mm | - | - | - |
| 1777338301 | 11.67° C | 57% | 1020 hPa | 0 mm | - | - | - |
| 1777337701 | 11.67° C | 56% | 1020 hPa | 0 mm | - | - | - |
| 1777337405 | 12.22° C | 56% | 1020 hPa | 0 mm | - | - | - |
| 1777335901 | 12.22° C | 56% | 1019.7 hPa | 0 mm | - | - | - |
| 1777335300 | 12.22° C | 55% | 1019.9 hPa | 0 mm | - | - | - |
| 1777329300 | 13.33° C | 49% | 1019.8 hPa | 0 mm | - | - | - |
| 1777328401 | 13.89° C | 48% | 1019.8 hPa | 0 mm | - | - | - |
| 1777313101 | 18.89° C | 38% | 1020.2 hPa | 0 mm | - | - | - |
| 1777312800 | 18.89° C | 37% | 1020 hPa | 0 mm | - | - | - |
| 1777312501 | 18.89° C | 36% | 1020.1 hPa | 0 mm | - | - | - |
| 1777312201 | 19.44° C | 36% | 1020.1 hPa | 0 mm | - | - | - |
| 1777311000 | 20° C | 32% | 1020.1 hPa | 0 mm | - | - | - |
| 1777306800 | 21.11° C | 30% | 1020.6 hPa | 0 mm | - | - | - |
| 1777306200 | 21.67° C | 32% | 1020.4 hPa | 0 mm | - | - | - |
| 1777305600 | 21.67° C | 32% | 1020.5 hPa | 0 mm | - | - | - |
| 1777304400 | 21.67° C | 29% | 1020.6 hPa | 0 mm | - | - | - |
| 1777304100 | 21.67° C | 28% | 1020.6 hPa | 0 mm | - | - | - |
| 1777303800 | 21.67° C | 28% | 1020.6 hPa | 0 mm | - | - | - |
| 1777300800 | 21.67° C | 27% | 1020.9 hPa | 0 mm | - | - | - |
| 1777300500 | 21.67° C | 27% | 1021 hPa | 0 mm | - | - | - |
| 1777300200 | 21.67° C | 27% | 1020.8 hPa | 0 mm | - | - | - |
* Rain latest hour (hover to see other rain measurements)
** Current wind speed in m/s (hover to see current wind gust speed)